Brantford, Canada
Current Conditions -  °F | °C
As of 7:00 AM on Tuesday 27 Jan 2015 (Local Time) from CYHM Reporting Station
Light Snow Light Snow  
Wind Chill: -5°   Ceiling: 8400
Heat Index: 10°   Visibility: 10mi
Dew Point:   Wind: 13mph
Humidity: 73%   Direction: 20°NNE
Pressure: 29.99"   Gusts: NA
Location:  43.14°N, 80.26°W
Report Text: CYHM 271200Z 02011KT 10SM -SN FEW016 SCT062 OVC084 M12/M16 A2999 RMK SC2SC1AC5 SLP173
Loading
Personal Weather Stations






























Interactive Weather Map New forecast layout! Learn more

10-Day Weather Forecast

Advertisements
Track Severe Weather on mobile